Palmdale, CA

6:34 AM PDT on July 24, 2016 (GMT -0700)
MesoWest | | Change Station

Elev 2617 ft 34.60 °N, 118.12 °W | Updated 3 hours ago

Clear
Clear
75.0 °F
Feels Like 75.0 °F
N
0.0
Wind Variable Wind from North
Gusts 0.0 mph

Today
High -- | Low -- °F
--% Chance of Precip.
Yesterday
High -- | Low -- °F
Precip. -- in
Pressure 29.81 in
Visibility 8.0 miles
Clouds Clear
Dew Point Not available.
Humidity Not available.
Rainfall in
Snow Depth Not available.
5:57 AM 8:00 PM
Waning Gibbous, 76% visible
METAR KPMD 241253Z AUTO 17005KT 8SM CLR 23/02 A2991 RMK AO2 SLP095 T02330022
Pressure 29.81 in
Visibility 8.0 miles
Clouds Clear
Dew Point Not available.
Humidity Not available.
Rainfall in
Snow Depth Not available.
5:57 AM 8:00 PM
Waning Gibbous, 76% visible
METAR KPMD 241253Z AUTO 17005KT 8SM CLR 23/02 A2991 RMK AO2 SLP095 T02330022

10-Day Weather Forecast

Almanac

Astronomy

Jul. 24, 2016 Rise Set
Actual Time
Civil Twilight
Nautical Twilight
Astronomical Twilight
Moon
Length of Visible Light
Length of Day
Tomorrow will be .
, % of the Moon is Illuminated

Today's Extremes

State Highs State Lows

Community

WunderPhotos

Upload Photos

1,927,057 photos uploaded!

WunderBlog® & News

Nearby

Air Quality

  Air Quality AQ Index Pollutant
Not available.

Snow Depth

Station Depth Elevation

Earthquake Activity

City Distance Mag. Time & Date
Minimum magnitude displayed is 2.5.

Coastal Water Temperatures

Place Temperature

Stations

Nearby Weather Stations

Station Location Temp. Windchill Dew Point Humidity Wind Precip. Elev Updated Type
                   

Watches & Warnings

There are currently no watches in effect.